Terminal Aerodrome Forecast
Issued by NWS

Home | Current Version | Previous Version | Text Only | Print | Product List | Glossary On
Versions: 1 2 3 4 5 6 7 8 9 10 11 12 13 14 15
000
FTUS42 KMLB 240603 AAA
TAFLEE
TAF AMD
KLEE 240603Z 2406/2506 14004KT P6SM SCT250
     FM241800 10008KT P6SM VCTS SCT045CB
      TEMPO 2419/2422 3SM TSRA BKN030CB
     FM242300 13008KT P6SM SCT050
     FM250100 14004KT P6SM SCT250=

USA.gov is the U.S. government's official web portal to all federal, state and local government web resources and services.